Airfield :
LOGIN :

Register | Disclaimer

   EN    FR    IT 

 










Legend :    VFR   Marginal VFR   IFR   Intensive IFR   Very Intensive IFR
Visi :
Ceiling :
>= 8 km
>= 3000ft
5 to 8 km
1000 to 3000 ft
1500m to 5 km
500 to 1000 ft
800 to 1500m
200 to 500 ft
< 800m
< 200 ft
Symbols :   Thunderstorms  Fog  Heavy snow  Heavy precipitations  Wind > 20 kt
SIGMETs :     Misc.  Thunderstorms  Icing  Turbulence  Mountain Waves  Volcanic Ashes







- Airport Elevation : 218 ft
- IATA code : LBG
- Download approach charts


LFPB - Paris / Le Bourget

CURRENT METAR :
  • 240700Z AUTO 20003KT 2500 -RA BR OVC004 14/14 Q1023 NOSIG

EXPIRED METARs :
  • 240630Z AUTO 21003KT 3200 DZ BR OVC004 14/14 Q1023 TEMPO 2000 -DZ
  • 240600Z AUTO 19005KT 2800 DZ BR OVC005 14/14 Q1023 TEMPO NSW
  • 240530Z AUTO 19003KT 4800 BR OVC005 14/14 Q1023 TEMPO 2000 -DZ
  • 240500Z AUTO 20003KT 4000 -DZ BR OVC006 14/14 Q1023 TEMPO SCT003 OVC004

TAF TAF LFPB
Valid from the 24 at 06:00 until the 25 at 06:00 UTC


240500Z 2406/2506 21007KT 7000 BKN008
TEMPO 2406/2410 2000 -DZ SCT003 OVC004
BECMG 2412/2414 BKN012 BKN030
BECMG 2422/2424 BKN009
BECMG 2500/2503 4000 BR BKN005
ATIS : +33 1 48 62 43 92
No reported NOTAMs for that airfield.



MET'MAP, your aeronautical weather chart ! - Copyright ORBIFLY December 2007 - Disclaimer

ORBIFLY MET'MAP TEAM :

Programming & Development : Alexandra Zaïnal
Concept & Development : Baudouin d'Aumeries
Co-Development & Prog : Marc-Olivier Méhu
Technical & hardware support : Manuel Goepfert

Contact : metmap@orbifly.com




SOURCES & CREDITS :

   NOAA